sensor_id;sensor_type;location;lat;lon;timestamp;temperature;humidity
19622;DHT22;9958;33.196;-97.114;2023-06-26T00:02:17;38.10;73.20
19622;DHT22;9958;33.196;-97.114;2023-06-26T00:04:45;38.00;73.40
19622;DHT22;9958;33.196;-97.114;2023-06-26T00:07:13;38.00;73.60
19622;DHT22;9958;33.196;-97.114;2023-06-26T00:09:42;37.80;74.20
19622;DHT22;9958;33.196;-97.114;2023-06-26T00:12:12;37.80;74.60
19622;DHT22;9958;33.196;-97.114;2023-06-26T00:14:40;37.70;74.60
19622;DHT22;9958;33.196;-97.114;2023-06-26T00:17:08;37.70;75.00
19622;DHT22;9958;33.196;-97.114;2023-06-26T00:19:36;37.60;75.50
19622;DHT22;9958;33.196;-97.114;2023-06-26T00:22:05;37.50;76.20
19622;DHT22;9958;33.196;-97.114;2023-06-26T00:24:33;37.40;76.10
19622;DHT22;9958;33.196;-97.114;2023-06-26T00:27:03;37.40;75.90
19622;DHT22;9958;33.196;-97.114;2023-06-26T00:29:33;37.30;76.00
19622;DHT22;9958;33.196;-97.114;2023-06-26T00:32:01;37.20;76.70
19622;DHT22;9958;33.196;-97.114;2023-06-26T00:34:29;37.10;76.60
19622;DHT22;9958;33.196;-97.114;2023-06-26T00:36:58;37.10;76.60
19622;DHT22;9958;33.196;-97.114;2023-06-26T00:39:27;37.00;76.80
19622;DHT22;9958;33.196;-97.114;2023-06-26T00:41:55;36.90;76.40
19622;DHT22;9958;33.196;-97.114;2023-06-26T00:44:24;36.80;76.80
19622;DHT22;9958;33.196;-97.114;2023-06-26T00:46:54;36.80;77.40
19622;DHT22;9958;33.196;-97.114;2023-06-26T00:49:23;36.70;77.20
19622;DHT22;9958;33.196;-97.114;2023-06-26T00:51:51;36.60;77.40
19622;DHT22;9958;33.196;-97.114;2023-06-26T00:54:21;36.50;77.40
19622;DHT22;9958;33.196;-97.114;2023-06-26T00:56:49;36.50;78.10
19622;DHT22;9958;33.196;-97.114;2023-06-26T00:59:17;36.40;78.80
19622;DHT22;9958;33.196;-97.114;2023-06-26T01:01:46;36.30;79.00
19622;DHT22;9958;33.196;-97.114;2023-06-26T01:04:16;36.20;79.10
19622;DHT22;9958;33.196;-97.114;2023-06-26T01:06:46;36.10;79.40
19622;DHT22;9958;33.196;-97.114;2023-06-26T01:09:17;36.10;79.00
19622;DHT22;9958;33.196;-97.114;2023-06-26T01:11:46;36.00;78.80
19622;DHT22;9958;33.196;-97.114;2023-06-26T01:14:15;36.00;79.20
19622;DHT22;9958;33.196;-97.114;2023-06-26T01:16:44;35.90;79.60
19622;DHT22;9958;33.196;-97.114;2023-06-26T01:19:20;35.80;79.90
19622;DHT22;9958;33.196;-97.114;2023-06-26T01:21:56;35.80;80.20
19622;DHT22;9958;33.196;-97.114;2023-06-26T01:24:33;35.80;80.70
19622;DHT22;9958;33.196;-97.114;2023-06-26T01:27:05;35.60;81.10
19622;DHT22;9958;33.196;-97.114;2023-06-26T01:29:35;35.60;81.50
19622;DHT22;9958;33.196;-97.114;2023-06-26T01:32:04;35.50;81.50
19622;DHT22;9958;33.196;-97.114;2023-06-26T01:34:33;35.40;82.10
19622;DHT22;9958;33.196;-97.114;2023-06-26T01:37:02;35.40;82.30
19622;DHT22;9958;33.196;-97.114;2023-06-26T01:39:30;35.30;82.70
19622;DHT22;9958;33.196;-97.114;2023-06-26T01:41:59;35.30;83.20
19622;DHT22;9958;33.196;-97.114;2023-06-26T01:44:29;35.20;83.50
19622;DHT22;9958;33.196;-97.114;2023-06-26T01:47:03;35.20;84.20
19622;DHT22;9958;33.196;-97.114;2023-06-26T01:49:40;35.10;84.50
19622;DHT22;9958;33.196;-97.114;2023-06-26T01:52:18;35.10;84.90
19622;DHT22;9958;33.196;-97.114;2023-06-26T01:54:54;35.00;85.60
19622;DHT22;9958;33.196;-97.114;2023-06-26T01:57:23;34.90;85.80
19622;DHT22;9958;33.196;-97.114;2023-06-26T01:59:55;34.90;86.30
19622;DHT22;9958;33.196;-97.114;2023-06-26T02:02:25;34.80;86.60
19622;DHT22;9958;33.196;-97.114;2023-06-26T02:04:53;34.70;86.80
19622;DHT22;9958;33.196;-97.114;2023-06-26T02:07:21;34.70;87.20
19622;DHT22;9958;33.196;-97.114;2023-06-26T02:09:49;34.70;87.60
19622;DHT22;9958;33.196;-97.114;2023-06-26T02:12:18;34.60;87.70
19622;DHT22;9958;33.196;-97.114;2023-06-26T02:14:46;34.60;88.10
19622;DHT22;9958;33.196;-97.114;2023-06-26T02:17:17;34.60;88.50
19622;DHT22;9958;33.196;-97.114;2023-06-26T02:19:46;34.50;88.90
19622;DHT22;9958;33.196;-97.114;2023-06-26T02:22:15;34.50;89.30
19622;DHT22;9958;33.196;-97.114;2023-06-26T02:24:44;34.40;89.50
19622;DHT22;9958;33.196;-97.114;2023-06-26T02:27:12;34.40;89.80
19622;DHT22;9958;33.196;-97.114;2023-06-26T02:29:41;34.30;90.00
19622;DHT22;9958;33.196;-97.114;2023-06-26T02:32:09;34.30;90.20
19622;DHT22;9958;33.196;-97.114;2023-06-26T02:34:39;34.30;90.40
19622;DHT22;9958;33.196;-97.114;2023-06-26T02:37:07;34.20;90.40
19622;DHT22;9958;33.196;-97.114;2023-06-26T02:39:36;34.10;90.50
19622;DHT22;9958;33.196;-97.114;2023-06-26T02:42:05;34.10;90.80
19622;DHT22;9958;33.196;-97.114;2023-06-26T02:44:33;34.00;90.90
19622;DHT22;9958;33.196;-97.114;2023-06-26T02:47:02;34.00;91.00
19622;DHT22;9958;33.196;-97.114;2023-06-26T02:49:30;33.90;91.20
19622;DHT22;9958;33.196;-97.114;2023-06-26T02:52:00;33.90;91.20
19622;DHT22;9958;33.196;-97.114;2023-06-26T02:54:28;33.80;91.30
19622;DHT22;9958;33.196;-97.114;2023-06-26T02:56:56;33.80;91.40
19622;DHT22;9958;33.196;-97.114;2023-06-26T02:59:25;33.70;91.40
19622;DHT22;9958;33.196;-97.114;2023-06-26T03:01:54;33.70;91.50
19622;DHT22;9958;33.196;-97.114;2023-06-26T03:04:22;33.70;91.60
19622;DHT22;9958;33.196;-97.114;2023-06-26T03:06:50;33.60;91.70
19622;DHT22;9958;33.196;-97.114;2023-06-26T03:09:20;33.60;91.80
19622;DHT22;9958;33.196;-97.114;2023-06-26T03:11:49;33.60;91.80
19622;DHT22;9958;33.196;-97.114;2023-06-26T03:14:17;33.60;92.10
19622;DHT22;9958;33.196;-97.114;2023-06-26T03:16:45;33.60;92.30
19622;DHT22;9958;33.196;-97.114;2023-06-26T03:19:14;33.50;92.60
19622;DHT22;9958;33.196;-97.114;2023-06-26T03:21:42;33.50;92.60
19622;DHT22;9958;33.196;-97.114;2023-06-26T03:24:10;33.40;92.70
19622;DHT22;9958;33.196;-97.114;2023-06-26T03:26:40;33.40;93.10
19622;DHT22;9958;33.196;-97.114;2023-06-26T03:29:09;33.40;93.40
19622;DHT22;9958;33.196;-97.114;2023-06-26T03:31:37;33.30;93.30
19622;DHT22;9958;33.196;-97.114;2023-06-26T03:34:06;33.30;93.40
19622;DHT22;9958;33.196;-97.114;2023-06-26T03:36:34;33.20;93.60
19622;DHT22;9958;33.196;-97.114;2023-06-26T03:39:03;33.30;94.00
19622;DHT22;9958;33.196;-97.114;2023-06-26T03:41:31;33.10;94.10
19622;DHT22;9958;33.196;-97.114;2023-06-26T03:44:01;33.10;94.20
19622;DHT22;9958;33.196;-97.114;2023-06-26T03:46:29;33.10;94.60
19622;DHT22;9958;33.196;-97.114;2023-06-26T03:48:58;33.10;94.60
19622;DHT22;9958;33.196;-97.114;2023-06-26T03:51:26;33.10;94.80
19622;DHT22;9958;33.196;-97.114;2023-06-26T03:53:54;33.00;95.00
19622;DHT22;9958;33.196;-97.114;2023-06-26T03:56:23;32.90;95.20
19622;DHT22;9958;33.196;-97.114;2023-06-26T03:58:51;32.90;95.40
19622;DHT22;9958;33.196;-97.114;2023-06-26T04:01:21;32.90;95.50
19622;DHT22;9958;33.196;-97.114;2023-06-26T04:03:49;32.80;95.80
19622;DHT22;9958;33.196;-97.114;2023-06-26T04:06:18;32.80;95.90
19622;DHT22;9958;33.196;-97.114;2023-06-26T04:08:46;32.70;96.10
19622;DHT22;9958;33.196;-97.114;2023-06-26T04:11:14;32.70;96.10
19622;DHT22;9958;33.196;-97.114;2023-06-26T04:13:43;32.60;96.30
19622;DHT22;9958;33.196;-97.114;2023-06-26T04:16:11;32.60;96.40
19622;DHT22;9958;33.196;-97.114;2023-06-26T04:18:41;32.50;96.50
19622;DHT22;9958;33.196;-97.114;2023-06-26T04:21:11;32.60;96.80
19622;DHT22;9958;33.196;-97.114;2023-06-26T04:23:40;32.50;96.90
19622;DHT22;9958;33.196;-97.114;2023-06-26T04:26:09;32.40;96.90
19622;DHT22;9958;33.196;-97.114;2023-06-26T04:28:40;32.40;97.10
19622;DHT22;9958;33.196;-97.114;2023-06-26T04:31:09;32.40;97.20
19622;DHT22;9958;33.196;-97.114;2023-06-26T04:33:38;32.40;97.20
19622;DHT22;9958;33.196;-97.114;2023-06-26T04:36:08;32.30;97.20
19622;DHT22;9958;33.196;-97.114;2023-06-26T04:38:37;32.30;97.30
19622;DHT22;9958;33.196;-97.114;2023-06-26T04:41:05;32.20;97.60
19622;DHT22;9958;33.196;-97.114;2023-06-26T04:43:34;32.20;97.70
19622;DHT22;9958;33.196;-97.114;2023-06-26T04:46:03;32.20;97.60
19622;DHT22;9958;33.196;-97.114;2023-06-26T04:48:31;32.20;97.60
19622;DHT22;9958;33.196;-97.114;2023-06-26T04:50:59;32.10;97.80
19622;DHT22;9958;33.196;-97.114;2023-06-26T04:53:29;32.10;97.70
19622;DHT22;9958;33.196;-97.114;2023-06-26T04:55:58;32.10;97.80
19622;DHT22;9958;33.196;-97.114;2023-06-26T04:58:26;32.10;97.80
19622;DHT22;9958;33.196;-97.114;2023-06-26T05:00:54;32.00;97.90
19622;DHT22;9958;33.196;-97.114;2023-06-26T05:03:23;32.00;98.10
19622;DHT22;9958;33.196;-97.114;2023-06-26T05:05:51;32.00;98.00
19622;DHT22;9958;33.196;-97.114;2023-06-26T05:08:21;32.00;98.10
19622;DHT22;9958;33.196;-97.114;2023-06-26T05:10:51;32.00;98.10
19622;DHT22;9958;33.196;-97.114;2023-06-26T05:13:24;31.90;98.20
19622;DHT22;9958;33.196;-97.114;2023-06-26T05:15:52;31.90;98.10
19622;DHT22;9958;33.196;-97.114;2023-06-26T05:18:21;31.90;98.30
19622;DHT22;9958;33.196;-97.114;2023-06-26T05:20:50;31.90;98.30
19622;DHT22;9958;33.196;-97.114;2023-06-26T05:23:18;31.80;98.50
19622;DHT22;9958;33.196;-97.114;2023-06-26T05:25:48;31.80;98.70
19622;DHT22;9958;33.196;-97.114;2023-06-26T05:28:19;31.80;98.70
19622;DHT22;9958;33.196;-97.114;2023-06-26T05:30:48;31.80;98.70
19622;DHT22;9958;33.196;-97.114;2023-06-26T05:33:18;31.80;98.90
19622;DHT22;9958;33.196;-97.114;2023-06-26T05:35:48;31.70;98.90
19622;DHT22;9958;33.196;-97.114;2023-06-26T05:38:17;31.70;99.00
19622;DHT22;9958;33.196;-97.114;2023-06-26T05:40:46;31.70;99.30
19622;DHT22;9958;33.196;-97.114;2023-06-26T05:43:17;31.60;99.30
19622;DHT22;9958;33.196;-97.114;2023-06-26T05:45:48;31.60;99.20
19622;DHT22;9958;33.196;-97.114;2023-06-26T05:48:16;31.60;99.30
19622;DHT22;9958;33.196;-97.114;2023-06-26T05:50:45;31.60;99.60
19622;DHT22;9958;33.196;-97.114;2023-06-26T05:53:13;31.50;99.60
19622;DHT22;9958;33.196;-97.114;2023-06-26T05:55:42;31.50;99.70
19622;DHT22;9958;33.196;-97.114;2023-06-26T05:58:11;31.50;99.90
19622;DHT22;9958;33.196;-97.114;2023-06-26T06:00:42;31.50;99.90
19622;DHT22;9958;33.196;-97.114;2023-06-26T06:03:10;31.50;99.90
19622;DHT22;9958;33.196;-97.114;2023-06-26T06:05:39;31.40;99.90
19622;DHT22;9958;33.196;-97.114;2023-06-26T06:08:07;31.40;99.90
19622;DHT22;9958;33.196;-97.114;2023-06-26T06:10:35;31.40;99.90
19622;DHT22;9958;33.196;-97.114;2023-06-26T06:13:04;31.40;99.90
19622;DHT22;9958;33.196;-97.114;2023-06-26T06:15:32;31.40;99.90
19622;DHT22;9958;33.196;-97.114;2023-06-26T06:18:02;31.30;99.90
19622;DHT22;9958;33.196;-97.114;2023-06-26T06:20:31;31.30;99.90
19622;DHT22;9958;33.196;-97.114;2023-06-26T06:22:59;31.30;99.90
19622;DHT22;9958;33.196;-97.114;2023-06-26T06:25:27;31.30;99.90
19622;DHT22;9958;33.196;-97.114;2023-06-26T06:27:56;31.20;99.90
19622;DHT22;9958;33.196;-97.114;2023-06-26T06:30:24;31.20;99.90
19622;DHT22;9958;33.196;-97.114;2023-06-26T06:32:53;31.10;99.90
19622;DHT22;9958;33.196;-97.114;2023-06-26T06:35:23;31.10;99.90
19622;DHT22;9958;33.196;-97.114;2023-06-26T06:37:52;31.10;99.90
19622;DHT22;9958;33.196;-97.114;2023-06-26T06:40:20;31.10;99.90
19622;DHT22;9958;33.196;-97.114;2023-06-26T06:42:49;31.10;99.90
19622;DHT22;9958;33.196;-97.114;2023-06-26T06:45:17;31.00;99.90
19622;DHT22;9958;33.196;-97.114;2023-06-26T06:47:45;31.00;99.90
19622;DHT22;9958;33.196;-97.114;2023-06-26T06:50:14;30.90;99.90
19622;DHT22;9958;33.196;-97.114;2023-06-26T06:52:44;30.90;99.90
19622;DHT22;9958;33.196;-97.114;2023-06-26T06:55:12;30.90;99.90
19622;DHT22;9958;33.196;-97.114;2023-06-26T06:57:41;30.80;99.90
19622;DHT22;9958;33.196;-97.114;2023-06-26T07:00:11;30.80;99.90
19622;DHT22;9958;33.196;-97.114;2023-06-26T07:02:42;30.70;99.90
19622;DHT22;9958;33.196;-97.114;2023-06-26T07:05:10;30.70;99.90
19622;DHT22;9958;33.196;-97.114;2023-06-26T07:07:39;30.60;99.90
19622;DHT22;9958;33.196;-97.114;2023-06-26T07:10:11;30.60;99.90
19622;DHT22;9958;33.196;-97.114;2023-06-26T07:12:39;30.60;99.90
19622;DHT22;9958;33.196;-97.114;2023-06-26T07:15:08;30.60;99.90
19622;DHT22;9958;33.196;-97.114;2023-06-26T07:17:36;30.50;99.90
19622;DHT22;9958;33.196;-97.114;2023-06-26T07:20:06;30.50;99.90
19622;DHT22;9958;33.196;-97.114;2023-06-26T07:22:36;30.50;99.90
19622;DHT22;9958;33.196;-97.114;2023-06-26T07:25:05;30.50;99.90
19622;DHT22;9958;33.196;-97.114;2023-06-26T07:27:37;30.50;99.90
19622;DHT22;9958;33.196;-97.114;2023-06-26T07:30:06;30.40;99.90
19622;DHT22;9958;33.196;-97.114;2023-06-26T07:32:35;30.30;99.90
19622;DHT22;9958;33.196;-97.114;2023-06-26T07:35:04;30.30;99.90
19622;DHT22;9958;33.196;-97.114;2023-06-26T07:37:33;30.30;99.90
19622;DHT22;9958;33.196;-97.114;2023-06-26T07:40:01;30.20;99.90
19622;DHT22;9958;33.196;-97.114;2023-06-26T07:42:30;30.20;99.90
19622;DHT22;9958;33.196;-97.114;2023-06-26T07:45:00;30.20;99.90
19622;DHT22;9958;33.196;-97.114;2023-06-26T07:47:28;30.10;99.90
19622;DHT22;9958;33.196;-97.114;2023-06-26T07:49:57;30.10;99.90
19622;DHT22;9958;33.196;-97.114;2023-06-26T07:52:25;30.10;99.90
19622;DHT22;9958;33.196;-97.114;2023-06-26T07:54:53;30.00;99.90
19622;DHT22;9958;33.196;-97.114;2023-06-26T07:57:22;29.90;99.90
19622;DHT22;9958;33.196;-97.114;2023-06-26T07:59:50;29.90;99.90
19622;DHT22;9958;33.196;-97.114;2023-06-26T08:02:21;29.90;99.90
19622;DHT22;9958;33.196;-97.114;2023-06-26T08:04:49;29.90;99.90
19622;DHT22;9958;33.196;-97.114;2023-06-26T08:07:18;29.80;99.90
19622;DHT22;9958;33.196;-97.114;2023-06-26T08:09:46;29.80;99.90
19622;DHT22;9958;33.196;-97.114;2023-06-26T08:12:14;29.80;99.90
19622;DHT22;9958;33.196;-97.114;2023-06-26T08:14:43;29.80;99.90
19622;DHT22;9958;33.196;-97.114;2023-06-26T08:17:11;29.70;99.90
19622;DHT22;9958;33.196;-97.114;2023-06-26T08:19:41;29.70;99.90
19622;DHT22;9958;33.196;-97.114;2023-06-26T08:22:09;29.60;99.90
19622;DHT22;9958;33.196;-97.114;2023-06-26T08:24:38;29.60;99.90
19622;DHT22;9958;33.196;-97.114;2023-06-26T08:27:06;29.60;99.90
19622;DHT22;9958;33.196;-97.114;2023-06-26T08:29:35;29.50;99.90
19622;DHT22;9958;33.196;-97.114;2023-06-26T08:32:03;29.50;99.90
19622;DHT22;9958;33.196;-97.114;2023-06-26T08:34:32;29.50;99.90
19622;DHT22;9958;33.196;-97.114;2023-06-26T08:37:01;29.50;99.90
19622;DHT22;9958;33.196;-97.114;2023-06-26T08:39:30;29.40;99.90
19622;DHT22;9958;33.196;-97.114;2023-06-26T08:41:58;29.50;99.90
19622;DHT22;9958;33.196;-97.114;2023-06-26T08:44:27;29.50;99.90
19622;DHT22;9958;33.196;-97.114;2023-06-26T08:46:55;29.40;99.90
19622;DHT22;9958;33.196;-97.114;2023-06-26T08:49:30;29.40;99.90
19622;DHT22;9958;33.196;-97.114;2023-06-26T08:52:16;29.40;99.90
19622;DHT22;9958;33.196;-97.114;2023-06-26T08:54:46;29.40;99.90
19622;DHT22;9958;33.196;-97.114;2023-06-26T08:57:18;29.40;99.90
19622;DHT22;9958;33.196;-97.114;2023-06-26T08:59:48;29.40;99.90
19622;DHT22;9958;33.196;-97.114;2023-06-26T09:02:16;29.40;99.90
19622;DHT22;9958;33.196;-97.114;2023-06-26T09:04:47;29.40;99.90
19622;DHT22;9958;33.196;-97.114;2023-06-26T09:07:18;29.40;99.90
19622;DHT22;9958;33.196;-97.114;2023-06-26T09:09:46;29.30;99.90
19622;DHT22;9958;33.196;-97.114;2023-06-26T09:12:15;29.30;99.90
19622;DHT22;9958;33.196;-97.114;2023-06-26T09:14:44;29.30;99.90
19622;DHT22;9958;33.196;-97.114;2023-06-26T09:17:13;29.30;99.90
19622;DHT22;9958;33.196;-97.114;2023-06-26T09:19:45;29.20;99.90
19622;DHT22;9958;33.196;-97.114;2023-06-26T09:22:14;29.20;99.90
19622;DHT22;9958;33.196;-97.114;2023-06-26T09:24:45;29.20;99.90
19622;DHT22;9958;33.196;-97.114;2023-06-26T09:27:14;29.20;99.90
19622;DHT22;9958;33.196;-97.114;2023-06-26T09:29:42;29.20;99.90
19622;DHT22;9958;33.196;-97.114;2023-06-26T09:32:13;29.10;99.90
19622;DHT22;9958;33.196;-97.114;2023-06-26T09:34:43;29.10;99.90
19622;DHT22;9958;33.196;-97.114;2023-06-26T09:37:12;29.00;99.90
19622;DHT22;9958;33.196;-97.114;2023-06-26T09:39:41;29.00;99.90
19622;DHT22;9958;33.196;-97.114;2023-06-26T09:42:13;29.00;99.90
19622;DHT22;9958;33.196;-97.114;2023-06-26T09:44:44;29.00;99.90
19622;DHT22;9958;33.196;-97.114;2023-06-26T09:47:16;28.90;99.90
19622;DHT22;9958;33.196;-97.114;2023-06-26T09:49:45;28.90;99.90
19622;DHT22;9958;33.196;-97.114;2023-06-26T09:52:15;28.90;99.90
19622;DHT22;9958;33.196;-97.114;2023-06-26T09:54:44;28.90;99.90
19622;DHT22;9958;33.196;-97.114;2023-06-26T09:57:16;28.90;99.90
19622;DHT22;9958;33.196;-97.114;2023-06-26T09:59:45;28.90;99.90
19622;DHT22;9958;33.196;-97.114;2023-06-26T10:02:15;28.90;99.90
19622;DHT22;9958;33.196;-97.114;2023-06-26T10:04:43;28.90;99.90
19622;DHT22;9958;33.196;-97.114;2023-06-26T10:07:12;28.80;99.90
19622;DHT22;9958;33.196;-97.114;2023-06-26T10:09:42;28.80;99.90
19622;DHT22;9958;33.196;-97.114;2023-06-26T10:12:16;28.80;99.90
19622;DHT22;9958;33.196;-97.114;2023-06-26T10:14:46;28.80;99.90
19622;DHT22;9958;33.196;-97.114;2023-06-26T10:17:16;28.80;99.90
19622;DHT22;9958;33.196;-97.114;2023-06-26T10:19:45;28.80;99.90
19622;DHT22;9958;33.196;-97.114;2023-06-26T10:22:16;28.80;99.90
19622;DHT22;9958;33.196;-97.114;2023-06-26T10:24:47;28.70;99.90
19622;DHT22;9958;33.196;-97.114;2023-06-26T10:27:18;28.70;99.90
19622;DHT22;9958;33.196;-97.114;2023-06-26T10:29:49;28.70;99.90
19622;DHT22;9958;33.196;-97.114;2023-06-26T10:32:21;28.70;99.90
19622;DHT22;9958;33.196;-97.114;2023-06-26T10:34:51;28.60;99.90
19622;DHT22;9958;33.196;-97.114;2023-06-26T10:37:20;28.60;99.90
19622;DHT22;9958;33.196;-97.114;2023-06-26T10:39:49;28.60;99.90
19622;DHT22;9958;33.196;-97.114;2023-06-26T10:42:33;28.60;99.90
19622;DHT22;9958;33.196;-97.114;2023-06-26T10:45:10;28.60;99.90
19622;DHT22;9958;33.196;-97.114;2023-06-26T10:47:44;28.50;99.90
19622;DHT22;9958;33.196;-97.114;2023-06-26T10:50:20;28.50;99.90
19622;DHT22;9958;33.196;-97.114;2023-06-26T10:53:15;28.50;99.90
19622;DHT22;9958;33.196;-97.114;2023-06-26T10:55:49;28.50;99.90
19622;DHT22;9958;33.196;-97.114;2023-06-26T10:58:30;28.40;99.90
19622;DHT22;9958;33.196;-97.114;2023-06-26T11:01:18;28.40;99.90
19622;DHT22;9958;33.196;-97.114;2023-06-26T11:03:49;28.40;99.90
19622;DHT22;9958;33.196;-97.114;2023-06-26T11:06:21;28.40;99.90
19622;DHT22;9958;33.196;-97.114;2023-06-26T11:08:50;28.40;99.90
19622;DHT22;9958;33.196;-97.114;2023-06-26T11:11:20;28.30;99.90
19622;DHT22;9958;33.196;-97.114;2023-06-26T11:13:50;28.30;99.90
19622;DHT22;9958;33.196;-97.114;2023-06-26T11:16:18;28.30;99.90
19622;DHT22;9958;33.196;-97.114;2023-06-26T11:18:47;28.20;99.90
19622;DHT22;9958;33.196;-97.114;2023-06-26T11:21:15;28.30;99.90
19622;DHT22;9958;33.196;-97.114;2023-06-26T11:23:46;28.20;99.90
19622;DHT22;9958;33.196;-97.114;2023-06-26T11:26:16;28.20;99.90
19622;DHT22;9958;33.196;-97.114;2023-06-26T11:28:53;28.20;99.90
19622;DHT22;9958;33.196;-97.114;2023-06-26T11:31:29;28.10;99.90
19622;DHT22;9958;33.196;-97.114;2023-06-26T11:33:58;28.10;99.90
19622;DHT22;9958;33.196;-97.114;2023-06-26T11:36:27;28.10;99.90
19622;DHT22;9958;33.196;-97.114;2023-06-26T11:38:56;28.10;99.90
19622;DHT22;9958;33.196;-97.114;2023-06-26T11:41:25;28.10;99.90
19622;DHT22;9958;33.196;-97.114;2023-06-26T11:43:56;28.10;99.90
19622;DHT22;9958;33.196;-97.114;2023-06-26T11:46:31;28.10;99.90
19622;DHT22;9958;33.196;-97.114;2023-06-26T11:49:00;28.10;99.90
19622;DHT22;9958;33.196;-97.114;2023-06-26T11:51:30;28.20;99.90
19622;DHT22;9958;33.196;-97.114;2023-06-26T11:54:01;28.20;99.90
19622;DHT22;9958;33.196;-97.114;2023-06-26T11:56:31;28.20;99.90
19622;DHT22;9958;33.196;-97.114;2023-06-26T11:59:01;28.30;99.90
19622;DHT22;9958;33.196;-97.114;2023-06-26T12:01:34;28.30;99.90
19622;DHT22;9958;33.196;-97.114;2023-06-26T12:04:04;28.60;99.90
19622;DHT22;9958;33.196;-97.114;2023-06-26T12:06:35;29.10;99.90
19622;DHT22;9958;33.196;-97.114;2023-06-26T12:09:05;29.90;99.90
19622;DHT22;9958;33.196;-97.114;2023-06-26T12:11:35;30.80;99.90
19622;DHT22;9958;33.196;-97.114;2023-06-26T12:14:07;31.60;99.90
19622;DHT22;9958;33.196;-97.114;2023-06-26T12:16:37;32.30;99.90
19622;DHT22;9958;33.196;-97.114;2023-06-26T12:19:07;32.90;99.90
19622;DHT22;9958;33.196;-97.114;2023-06-26T12:21:47;33.50;99.90
19622;DHT22;9958;33.196;-97.114;2023-06-26T12:24:19;34.20;99.90
19622;DHT22;9958;33.196;-97.114;2023-06-26T12:26:50;35.00;99.90
19622;DHT22;9958;33.196;-97.114;2023-06-26T12:29:22;35.90;99.90
19622;DHT22;9958;33.196;-97.114;2023-06-26T12:31:56;36.70;99.90
19622;DHT22;9958;33.196;-97.114;2023-06-26T12:34:27;37.70;99.90
19622;DHT22;9958;33.196;-97.114;2023-06-26T12:37:02;38.60;99.90
19622;DHT22;9958;33.196;-97.114;2023-06-26T12:39:45;39.40;99.90
19622;DHT22;9958;33.196;-97.114;2023-06-26T12:42:15;40.20;98.50
19622;DHT22;9958;33.196;-97.114;2023-06-26T12:44:45;40.90;96.30
19622;DHT22;9958;33.196;-97.114;2023-06-26T12:47:15;41.50;94.10
19622;DHT22;9958;33.196;-97.114;2023-06-26T12:49:44;42.10;92.40
19622;DHT22;9958;33.196;-97.114;2023-06-26T12:52:14;42.60;90.70
19622;DHT22;9958;33.196;-97.114;2023-06-26T12:54:43;43.00;88.10
19622;DHT22;9958;33.196;-97.114;2023-06-26T12:57:13;43.50;85.80
19622;DHT22;9958;33.196;-97.114;2023-06-26T12:59:42;43.90;82.80
19622;DHT22;9958;33.196;-97.114;2023-06-26T13:02:12;44.40;80.50
19622;DHT22;9958;33.196;-97.114;2023-06-26T13:04:40;44.90;77.40
19622;DHT22;9958;33.196;-97.114;2023-06-26T13:07:11;45.30;75.00
19622;DHT22;9958;33.196;-97.114;2023-06-26T13:09:39;45.60;73.00
19622;DHT22;9958;33.196;-97.114;2023-06-26T13:12:08;45.90;71.20
19622;DHT22;9958;33.196;-97.114;2023-06-26T13:14:37;46.10;68.80
19622;DHT22;9958;33.196;-97.114;2023-06-26T13:17:06;46.30;67.90
19622;DHT22;9958;33.196;-97.114;2023-06-26T13:19:36;46.30;66.90
19622;DHT22;9958;33.196;-97.114;2023-06-26T13:22:04;46.40;65.90
19622;DHT22;9958;33.196;-97.114;2023-06-26T13:24:33;46.50;65.20
19622;DHT22;9958;33.196;-97.114;2023-06-26T13:27:01;46.30;65.00
19622;DHT22;9958;33.196;-97.114;2023-06-26T13:29:30;45.90;65.00
19622;DHT22;9958;33.196;-97.114;2023-06-26T13:31:59;45.20;65.50
19622;DHT22;9958;33.196;-97.114;2023-06-26T13:34:28;44.50;67.20
19622;DHT22;9958;33.196;-97.114;2023-06-26T13:36:58;43.80;69.40
19622;DHT22;9958;33.196;-97.114;2023-06-26T13:39:27;43.00;70.80
19622;DHT22;9958;33.196;-97.114;2023-06-26T13:41:55;42.40;73.50
19622;DHT22;9958;33.196;-97.114;2023-06-26T13:44:24;41.80;75.10
19622;DHT22;9958;33.196;-97.114;2023-06-26T13:46:52;41.20;76.60
19622;DHT22;9958;33.196;-97.114;2023-06-26T13:49:21;40.60;78.20
19622;DHT22;9958;33.196;-97.114;2023-06-26T13:51:49;40.10;79.90
19622;DHT22;9958;33.196;-97.114;2023-06-26T13:54:19;39.60;82.40
19622;DHT22;9958;33.196;-97.114;2023-06-26T13:56:47;39.10;83.60
19622;DHT22;9958;33.196;-97.114;2023-06-26T13:59:15;38.70;85.10
19622;DHT22;9958;33.196;-97.114;2023-06-26T14:01:44;38.30;86.60
19622;DHT22;9958;33.196;-97.114;2023-06-26T14:04:12;38.00;88.20
19622;DHT22;9958;33.196;-97.114;2023-06-26T14:06:41;37.70;88.70
19622;DHT22;9958;33.196;-97.114;2023-06-26T14:09:11;37.50;90.20
19622;DHT22;9958;33.196;-97.114;2023-06-26T14:11:41;37.20;90.80
19622;DHT22;9958;33.196;-97.114;2023-06-26T14:14:10;37.00;91.50
19622;DHT22;9958;33.196;-97.114;2023-06-26T14:16:38;36.90;91.50
19622;DHT22;9958;33.196;-97.114;2023-06-26T14:19:07;36.80;91.80
19622;DHT22;9958;33.196;-97.114;2023-06-26T14:21:41;36.70;92.20
19622;DHT22;9958;33.196;-97.114;2023-06-26T14:24:10;36.50;92.80
19622;DHT22;9958;33.196;-97.114;2023-06-26T14:26:40;36.40;92.70
19622;DHT22;9958;33.196;-97.114;2023-06-26T14:29:08;36.40;92.90
19622;DHT22;9958;33.196;-97.114;2023-06-26T14:31:36;36.20;93.10
19622;DHT22;9958;33.196;-97.114;2023-06-26T14:34:05;36.20;94.20
19622;DHT22;9958;33.196;-97.114;2023-06-26T14:36:33;36.20;93.60
19622;DHT22;9958;33.196;-97.114;2023-06-26T14:39:01;36.20;94.10
19622;DHT22;9958;33.196;-97.114;2023-06-26T14:41:30;36.20;94.40
19622;DHT22;9958;33.196;-97.114;2023-06-26T14:44:00;36.30;94.30
19622;DHT22;9958;33.196;-97.114;2023-06-26T14:46:28;36.30;94.40
19622;DHT22;9958;33.196;-97.114;2023-06-26T14:48:57;36.30;94.50
19622;DHT22;9958;33.196;-97.114;2023-06-26T14:51:25;36.40;94.40
19622;DHT22;9958;33.196;-97.114;2023-06-26T14:53:53;36.30;94.40
19622;DHT22;9958;33.196;-97.114;2023-06-26T14:56:22;36.50;94.60
19622;DHT22;9958;33.196;-97.114;2023-06-26T14:58:50;36.50;94.60
19622;DHT22;9958;33.196;-97.114;2023-06-26T15:01:20;36.60;94.20
19622;DHT22;9958;33.196;-97.114;2023-06-26T15:03:49;36.60;94.20
19622;DHT22;9958;33.196;-97.114;2023-06-26T15:06:17;36.70;94.40
19622;DHT22;9958;33.196;-97.114;2023-06-26T15:08:45;36.70;94.00
19622;DHT22;9958;33.196;-97.114;2023-06-26T15:11:14;36.70;94.10
19622;DHT22;9958;33.196;-97.114;2023-06-26T15:13:42;36.80;94.90
19622;DHT22;9958;33.196;-97.114;2023-06-26T15:16:10;36.90;95.00
19622;DHT22;9958;33.196;-97.114;2023-06-26T15:18:41;36.90;94.20
19622;DHT22;9958;33.196;-97.114;2023-06-26T15:21:09;37.00;94.10
19622;DHT22;9958;33.196;-97.114;2023-06-26T15:23:37;37.10;93.60
19622;DHT22;9958;33.196;-97.114;2023-06-26T15:26:06;37.20;93.50
19622;DHT22;9958;33.196;-97.114;2023-06-26T15:28:34;37.20;94.40
19622;DHT22;9958;33.196;-97.114;2023-06-26T15:31:03;37.30;94.70